createdAt,value
2022-08-26T00:15:41.560Z,99.90
2022-08-26T00:25:52.163Z,99.90
2022-08-26T00:33:20.278Z,99.90
2022-08-26T00:35:51.530Z,99.90
2022-08-26T00:40:55.968Z,99.90
2022-08-26T00:43:26.013Z,99.90
2022-08-26T00:46:05.091Z,99.90
2022-08-26T00:48:37.796Z,99.90
2022-08-26T00:51:11.539Z,99.90
2022-08-26T00:53:49.561Z,99.90
2022-08-26T00:56:35.005Z,99.90
2022-08-26T00:59:07.984Z,99.90
2022-08-26T01:01:38.149Z,99.90
2022-08-26T01:04:07.337Z,99.90
2022-08-26T01:14:02.842Z,99.90
2022-08-26T01:19:18.447Z,99.90
2022-08-26T01:22:05.977Z,99.90
2022-08-26T01:27:08.746Z,99.90
2022-08-26T01:29:39.596Z,99.90
2022-08-26T01:34:43.543Z,99.90
2022-08-26T01:39:48.947Z,99.90
2022-08-26T01:50:01.310Z,99.90
2022-08-26T01:52:33.644Z,99.90
2022-08-26T01:55:02.013Z,99.90
2022-08-26T02:00:07.332Z,99.90
2022-08-26T02:05:11.335Z,99.90
2022-08-26T02:15:14.190Z,99.90
2022-08-26T02:17:47.133Z,99.90
2022-08-26T02:20:19.331Z,99.90
2022-08-26T02:22:47.937Z,99.90
2022-08-26T02:25:31.130Z,99.90
2022-08-26T02:30:32.893Z,99.90
2022-08-26T02:33:05.656Z,99.90
2022-08-26T02:35:35.667Z,99.90
2022-08-26T02:38:10.054Z,99.90
2022-08-26T02:40:41.910Z,99.90
2022-08-26T02:43:09.894Z,99.90
2022-08-26T02:48:17.163Z,99.90
2022-08-26T02:58:22.932Z,99.90
2022-08-26T03:00:52.983Z,99.90
2022-08-26T03:03:23.550Z,99.90
2022-08-26T03:08:22.332Z,99.90
2022-08-26T03:13:20.046Z,99.90
2022-08-26T03:30:45.786Z,99.90
2022-08-26T03:33:15.090Z,99.90
2022-08-26T03:35:45.547Z,99.90
2022-08-26T03:40:43.275Z,99.90
2022-08-26T03:43:16.128Z,99.90
2022-08-26T03:50:43.622Z,99.90
2022-08-26T03:55:41.656Z,99.90
2022-08-26T03:58:08.910Z,99.90
2022-08-26T04:03:04.666Z,99.90
2022-08-26T04:05:32.635Z,99.90
2022-08-26T04:08:00.199Z,99.90
2022-08-26T04:10:28.949Z,99.90
2022-08-26T04:12:59.387Z,99.90
2022-08-26T04:20:26.432Z,99.90
2022-08-26T04:27:52.247Z,99.90
2022-08-26T04:32:49.632Z,99.90
2022-08-26T04:37:45.296Z,99.90
2022-08-26T04:45:10.141Z,99.90
2022-08-26T04:50:07.780Z,99.90
2022-08-26T04:52:36.896Z,99.90
2022-08-26T04:57:36.505Z,99.90
2022-08-26T05:00:12.070Z,99.90
2022-08-26T05:02:40.463Z,99.90
2022-08-26T05:05:10.805Z,99.90
2022-08-26T05:10:08.825Z,99.90
2022-08-26T05:12:36.363Z,99.90
2022-08-26T05:29:58.764Z,99.90
2022-08-26T05:34:55.962Z,99.90
2022-08-26T05:37:26.028Z,99.90
2022-08-26T05:39:53.297Z,99.90
2022-08-26T05:44:55.992Z,99.90
2022-08-26T05:47:24.405Z,99.90
2022-08-26T05:49:51.878Z,99.90
2022-08-26T05:54:49.572Z,99.90
2022-08-26T05:57:16.926Z,99.90
2022-08-26T06:02:13.424Z,99.90
2022-08-26T06:04:40.828Z,99.90
2022-08-26T06:07:07.976Z,99.90
2022-08-26T06:12:09.824Z,99.90
2022-08-26T06:17:05.337Z,99.90
2022-08-26T06:19:34.439Z,99.90
2022-08-26T06:22:23.622Z,99.90
2022-08-26T06:30:05.729Z,99.90
2022-08-26T06:32:33.593Z,99.90
2022-08-26T06:35:00.880Z,99.90
2022-08-26T06:37:28.703Z,99.90
2022-08-26T06:42:25.334Z,99.90
2022-08-26T06:44:56.229Z,99.90
2022-08-26T06:54:51.969Z,99.90
2022-08-26T06:57:20.674Z,99.90
2022-08-26T07:14:51.448Z,99.90
2022-08-26T07:19:48.869Z,99.90
2022-08-26T07:27:16.484Z,97.60
2022-08-26T07:29:45.133Z,96.30
2022-08-26T07:32:15.853Z,94.30
2022-08-26T07:37:12.022Z,92.10
2022-08-26T07:39:40.418Z,92.30
2022-08-26T07:42:10.755Z,90.20
2022-08-26T07:47:25.136Z,88.50
2022-08-26T07:49:56.750Z,89.50
2022-08-26T07:52:28.106Z,88.10
2022-08-26T07:55:03.020Z,86.20
2022-08-26T07:59:59.552Z,84.20
2022-08-26T08:02:29.445Z,83.50
2022-08-26T08:10:25.030Z,85.10
2022-08-26T08:12:53.813Z,81.20
2022-08-26T08:15:29.850Z,81.70
2022-08-26T08:18:00.606Z,81.30
2022-08-26T08:20:30.061Z,79.40
2022-08-26T08:22:57.643Z,74.30
2022-08-26T08:25:25.140Z,72.60
2022-08-26T08:27:52.443Z,70.80
2022-08-26T08:30:22.934Z,68.20
2022-08-26T08:32:55.553Z,70.80
2022-08-26T08:35:26.776Z,67.50
2022-08-26T08:37:55.520Z,62.80
2022-08-26T08:40:26.589Z,62.60
2022-08-26T08:43:10.355Z,61.20
2022-08-26T08:45:47.023Z,59.10
2022-08-26T08:48:30.606Z,58.80
2022-08-26T08:51:38.459Z,57.60
2022-08-26T08:54:07.859Z,56.50
2022-08-26T08:56:53.285Z,56.10
2022-08-26T08:59:24.232Z,55.30
2022-08-26T09:02:11.428Z,52.20
2022-08-26T09:04:57.491Z,52.60
2022-08-26T09:07:53.804Z,53.00
2022-08-26T09:10:42.559Z,51.50
2022-08-26T09:13:25.135Z,52.20
2022-08-26T09:16:20.289Z,53.50
2022-08-26T09:19:02.959Z,56.10
2022-08-26T09:21:32.574Z,52.70
2022-08-26T09:24:00.523Z,53.20
2022-08-26T09:26:43.337Z,50.10
2022-08-26T09:29:23.644Z,51.70
2022-08-26T09:32:13.120Z,52.80
2022-08-26T09:35:06.328Z,53.70
2022-08-26T09:37:40.028Z,51.60
2022-08-26T09:40:23.020Z,55.00
2022-08-26T09:43:22.590Z,53.70
2022-08-26T09:46:11.058Z,52.50
2022-08-26T09:48:41.165Z,50.40
2022-08-26T09:51:24.423Z,51.50
2022-08-26T09:53:59.556Z,51.60
2022-08-26T09:56:32.255Z,52.10
2022-08-26T09:59:01.745Z,52.60
2022-08-26T10:01:36.629Z,51.70
2022-08-26T10:04:26.806Z,53.80
2022-08-26T10:07:08.395Z,53.10
2022-08-26T10:09:45.885Z,53.30
2022-08-26T10:12:23.669Z,54.40
2022-08-26T10:15:00.429Z,56.60
2022-08-26T10:17:42.254Z,53.70
2022-08-26T10:20:23.466Z,55.30
2022-08-26T10:23:15.481Z,57.40
2022-08-26T10:26:13.214Z,57.90
2022-08-26T10:28:53.162Z,59.30
2022-08-26T10:31:40.369Z,55.50
2022-08-26T10:34:09.949Z,59.40
2022-08-26T10:37:14.511Z,59.50
2022-08-26T10:39:58.618Z,56.50
2022-08-26T10:42:45.332Z,55.30
2022-08-26T10:45:25.449Z,59.30
2022-08-26T10:48:12.741Z,58.60
2022-08-26T10:50:47.484Z,55.70
2022-08-26T10:53:46.996Z,56.30
2022-08-26T10:56:49.879Z,56.10
2022-08-26T11:00:01.412Z,58.90
2022-08-26T11:02:48.383Z,57.20
2022-08-26T11:05:23.660Z,56.00
2022-08-26T11:07:57.130Z,58.60
2022-08-26T11:10:24.437Z,59.70
2022-08-26T11:13:04.429Z,59.40
2022-08-26T11:15:32.043Z,58.90
2022-08-26T11:18:09.072Z,56.40
2022-08-26T11:20:46.163Z,55.90
2022-08-26T11:23:41.670Z,56.40
2022-08-26T11:26:12.368Z,56.60
2022-08-26T11:28:50.641Z,59.40
2022-08-26T11:31:19.408Z,58.10
2022-08-26T11:36:54.597Z,57.40
2022-08-26T11:39:24.581Z,57.70
2022-08-26T11:41:57.865Z,57.20
2022-08-26T11:44:39.609Z,59.00
2022-08-26T11:47:24.866Z,58.90
2022-08-26T11:50:23.611Z,59.30
2022-08-26T11:53:06.506Z,58.20
2022-08-26T11:55:43.624Z,56.70
2022-08-26T11:58:15.503Z,60.30
2022-08-26T12:01:09.640Z,58.30
2022-08-26T12:03:48.620Z,60.00
2022-08-26T12:09:02.995Z,59.90
2022-08-26T12:11:36.530Z,62.80
2022-08-26T12:14:21.450Z,59.10
2022-08-26T12:16:49.413Z,59.80
2022-08-26T12:19:33.014Z,63.20
2022-08-26T12:22:25.655Z,60.00
2022-08-26T12:25:11.311Z,59.90
2022-08-26T12:27:45.101Z,66.10
2022-08-26T12:32:57.633Z,64.30
2022-08-26T12:35:29.461Z,64.80
2022-08-26T12:37:57.685Z,63.90
2022-08-26T12:40:31.110Z,64.80
2022-08-26T12:43:05.476Z,64.40
2022-08-26T12:45:43.417Z,64.50
2022-08-26T12:48:24.457Z,65.60
2022-08-26T12:50:53.664Z,63.40
2022-08-26T12:55:58.575Z,66.20
2022-08-26T12:58:38.428Z,67.30
2022-08-26T13:01:08.949Z,70.50
2022-08-26T13:03:45.715Z,68.60
2022-08-26T13:06:17.623Z,72.30
2022-08-26T13:08:58.044Z,72.30
2022-08-26T13:14:09.193Z,75.20
2022-08-26T13:16:41.596Z,76.40
2022-08-26T13:19:14.731Z,78.50
2022-08-26T13:21:55.834Z,80.40
2022-08-26T13:26:57.868Z,83.20
2022-08-26T13:29:25.477Z,84.80
2022-08-26T13:34:24.231Z,78.30
2022-08-26T13:36:55.529Z,73.80
2022-08-26T13:39:26.943Z,76.70
2022-08-26T13:41:57.446Z,75.40
2022-08-26T13:46:52.831Z,86.00
2022-08-26T13:49:20.298Z,84.40
2022-08-26T13:51:47.746Z,84.00
2022-08-26T13:54:17.582Z,84.10
2022-08-26T13:56:45.013Z,88.50
2022-08-26T13:59:14.678Z,90.00
2022-08-26T14:01:45.114Z,89.30
2022-08-26T14:04:15.033Z,85.10
2022-08-26T14:06:42.587Z,87.60
2022-08-26T14:09:12.550Z,82.50
2022-08-26T14:11:53.798Z,84.60
2022-08-26T14:14:22.686Z,77.80
2022-08-26T14:16:59.097Z,82.80
2022-08-26T14:19:32.575Z,88.40
2022-08-26T14:22:01.810Z,87.00
2022-08-26T14:24:30.329Z,86.60
2022-08-26T14:27:00.744Z,87.40
2022-08-26T14:29:28.398Z,90.10
2022-08-26T14:31:58.851Z,91.50
2022-08-26T14:34:29.539Z,93.70
2022-08-26T14:39:39.433Z,97.30
2022-08-26T14:42:08.367Z,98.70
2022-08-26T14:47:06.989Z,99.90
2022-08-26T14:54:37.879Z,99.90
2022-08-26T14:57:10.440Z,99.90
2022-08-26T14:59:50.250Z,99.90
2022-08-26T15:05:08.573Z,98.50
2022-08-26T15:07:38.471Z,99.10
2022-08-26T15:10:15.063Z,97.10
2022-08-26T15:15:13.936Z,99.90
2022-08-26T15:17:41.931Z,99.90
2022-08-26T15:20:11.404Z,99.90
2022-08-26T15:22:42.444Z,99.90
2022-08-26T15:25:11.663Z,99.90
2022-08-26T15:27:39.537Z,99.90
2022-08-26T15:30:12.181Z,99.90
2022-08-26T15:32:39.728Z,99.90
2022-08-26T15:35:09.248Z,99.90
2022-08-26T15:40:09.676Z,99.90
2022-08-26T15:42:38.351Z,99.90
2022-08-26T15:45:06.501Z,99.90
2022-08-26T15:47:35.475Z,99.90
2022-08-26T15:50:25.639Z,99.90
2022-08-26T15:55:23.475Z,99.90
2022-08-26T15:57:51.000Z,99.90
2022-08-26T16:00:18.738Z,99.90
2022-08-26T16:05:16.298Z,99.90
2022-08-26T16:07:44.079Z,99.90
2022-08-26T16:10:12.088Z,99.90
2022-08-26T16:12:39.816Z,99.90
2022-08-26T16:15:08.602Z,99.90
2022-08-26T16:17:41.071Z,99.90
2022-08-26T16:20:09.733Z,99.90
2022-08-26T16:22:37.215Z,99.90
2022-08-26T16:25:05.230Z,99.90
2022-08-26T16:30:06.910Z,99.90
2022-08-26T16:32:34.687Z,99.90
2022-08-26T16:37:29.834Z,99.90
2022-08-26T16:39:57.441Z,99.90
2022-08-26T16:44:55.613Z,99.90
2022-08-26T16:47:23.319Z,99.90
2022-08-26T16:49:51.082Z,99.90
2022-08-26T16:52:19.250Z,99.90
2022-08-26T16:57:14.626Z,99.90
2022-08-26T16:59:42.407Z,99.90
2022-08-26T17:04:41.471Z,99.90
2022-08-26T17:12:11.530Z,99.90
2022-08-26T17:14:39.032Z,99.90
2022-08-26T17:17:06.918Z,99.90
2022-08-26T17:19:40.869Z,99.90
2022-08-26T17:22:15.299Z,99.90
2022-08-26T17:27:11.565Z,99.90
2022-08-26T17:32:07.519Z,99.90
2022-08-26T17:34:34.741Z,99.90
2022-08-26T17:39:29.494Z,99.90
2022-08-26T17:41:57.230Z,99.90
2022-08-26T17:44:24.759Z,99.90
2022-08-26T17:46:53.464Z,99.90
2022-08-26T17:49:21.390Z,99.90
2022-08-26T17:51:49.385Z,99.90
2022-08-26T17:59:14.853Z,99.90
2022-08-26T18:01:42.631Z,99.90
2022-08-26T18:06:43.609Z,99.90
2022-08-26T18:09:11.266Z,99.90
2022-08-26T18:11:38.907Z,99.90
2022-08-26T18:14:06.152Z,99.90
2022-08-26T18:19:07.902Z,99.90
2022-08-26T18:24:05.427Z,99.90
2022-08-26T18:26:37.641Z,99.90
2022-08-26T18:29:07.227Z,99.90
2022-08-26T18:31:35.394Z,99.90
2022-08-26T18:34:03.558Z,99.90
2022-08-26T18:36:36.747Z,99.90
2022-08-26T18:39:06.690Z,99.90
2022-08-26T18:41:43.513Z,99.90
2022-08-26T18:44:13.774Z,99.90
2022-08-26T18:46:42.281Z,99.90
2022-08-26T18:49:15.821Z,99.90
2022-08-26T18:51:46.732Z,99.90
2022-08-26T18:54:14.993Z,99.90
2022-08-26T18:56:43.823Z,99.90
2022-08-26T18:59:12.848Z,99.90
2022-08-26T19:01:42.534Z,99.90
2022-08-26T19:04:15.767Z,99.90
2022-08-26T19:06:46.580Z,99.90
2022-08-26T19:09:14.664Z,99.90
2022-08-26T19:11:46.745Z,99.90
2022-08-26T19:16:49.102Z,99.90
2022-08-26T19:19:20.855Z,99.90
2022-08-26T19:21:48.428Z,99.90
2022-08-26T19:24:19.905Z,99.90
2022-08-26T19:26:57.797Z,99.90
2022-08-26T19:29:30.721Z,99.90
2022-08-26T19:34:29.869Z,99.90
2022-08-26T19:36:59.882Z,99.90
2022-08-26T19:39:27.861Z,99.90
2022-08-26T19:44:43.254Z,99.90
2022-08-26T19:47:12.212Z,99.90
2022-08-26T19:52:11.500Z,99.90
2022-08-26T19:54:39.872Z,99.90
2022-08-26T19:57:07.382Z,99.90
2022-08-26T20:02:10.023Z,99.90
2022-08-26T20:04:41.691Z,99.90
2022-08-26T20:07:11.395Z,99.90
2022-08-26T20:09:40.471Z,99.90
2022-08-26T20:12:08.863Z,99.90
2022-08-26T20:14:36.846Z,99.90
2022-08-26T20:17:06.012Z,99.90
2022-08-26T20:19:52.457Z,99.90
2022-08-26T20:22:20.910Z,99.90
2022-08-26T20:24:56.382Z,99.90
2022-08-26T20:30:09.266Z,99.90
2022-08-26T20:32:38.574Z,99.90
2022-08-26T20:35:10.031Z,99.90
2022-08-26T20:37:41.226Z,99.90
2022-08-26T20:40:14.853Z,99.90
2022-08-26T20:45:11.355Z,99.90
2022-08-26T20:50:08.705Z,99.90
2022-08-26T20:52:39.195Z,99.90
2022-08-26T20:55:07.293Z,99.90
2022-08-26T20:57:37.456Z,99.90
2022-08-26T21:00:07.146Z,99.90
2022-08-26T21:02:39.391Z,99.90
2022-08-26T21:05:09.532Z,99.90
2022-08-26T21:07:39.529Z,99.90
2022-08-26T21:12:35.773Z,99.90
2022-08-26T21:15:05.159Z,99.90
2022-08-26T21:17:34.964Z,99.90
2022-08-26T21:20:02.766Z,99.90
2022-08-26T21:22:30.242Z,99.90
2022-08-26T21:27:26.619Z,99.90
2022-08-26T21:29:55.723Z,99.90
2022-08-26T21:32:25.428Z,99.90
2022-08-26T21:35:02.525Z,99.90
2022-08-26T21:40:02.003Z,99.90
2022-08-26T21:42:33.469Z,99.90
2022-08-26T21:45:04.917Z,99.90
2022-08-26T21:50:00.666Z,99.90
2022-08-26T21:52:28.218Z,99.90
2022-08-26T21:55:00.951Z,99.90
2022-08-26T21:57:30.603Z,99.90
2022-08-26T21:59:58.098Z,99.90
2022-08-26T22:02:25.736Z,99.90
2022-08-26T22:04:53.138Z,99.90
2022-08-26T22:07:21.616Z,99.90
2022-08-26T22:09:49.831Z,99.90
2022-08-26T22:12:18.521Z,99.90
2022-08-26T22:14:47.461Z,99.90
2022-08-26T22:17:15.257Z,99.90
2022-08-26T22:19:45.707Z,99.90
2022-08-26T22:22:14.156Z,99.90
2022-08-26T22:24:44.817Z,99.90
2022-08-26T22:27:13.807Z,99.90
2022-08-26T22:29:41.232Z,99.90
2022-08-26T22:32:09.049Z,99.90
2022-08-26T22:34:38.586Z,99.90
2022-08-26T22:37:06.322Z,99.90
2022-08-26T22:39:35.659Z,99.90
2022-08-26T22:47:00.554Z,99.90
2022-08-26T22:49:30.480Z,99.90
2022-08-26T22:51:57.664Z,99.90
2022-08-26T22:54:33.041Z,99.90
2022-08-26T22:57:05.211Z,99.90
2022-08-26T22:59:35.577Z,99.90
2022-08-26T23:02:05.658Z,99.90
2022-08-26T23:07:04.147Z,99.90
2022-08-26T23:09:31.608Z,99.90
2022-08-26T23:14:32.464Z,99.90
2022-08-26T23:19:29.882Z,99.90
2022-08-26T23:21:59.633Z,99.90
2022-08-26T23:24:26.850Z,99.90
2022-08-26T23:26:54.266Z,99.90
2022-08-26T23:31:51.460Z,99.90
2022-08-26T23:34:37.595Z,99.90
2022-08-26T23:37:07.923Z,99.90
2022-08-26T23:39:36.880Z,99.90
2022-08-26T23:42:07.675Z,99.90
2022-08-26T23:47:08.308Z,99.90
2022-08-26T23:49:36.625Z,99.90
2022-08-26T23:52:24.263Z,99.90
2022-08-26T23:54:52.969Z,99.90
2022-08-26T23:57:23.330Z,99.90
2022-08-26T23:59:50.616Z,99.90
